Time;durP1;ratioP1;P1;durP2;ratioP2;P2;SDS_P1;SDS_P2;PMS_P1;PMS_P2;Temp;Humidity;BMP_temperature;BMP_pressure;BME280_temperature;BME280_humidity;BME280_pressure;Samples;Min_cycle;Max_cycle;Signal;HPM_P1;HPM_P2
2023/08/18 00:00:17;;;;;;;173.23;164.55;;;26.00;99.90;;;;;;5014340;28;20045;-79
2023/08/18 00:02:43;;;;;;;214.20;203.32;;;25.90;99.90;;;;;;5013380;28;20038;-80
2023/08/18 00:05:10;;;;;;;59.40;56.03;;;25.80;99.90;;;;;;5014626;28;20037;-79
2023/08/18 00:07:36;;;;;;;72.35;68.57;;;25.80;99.90;;;;;;5013691;28;20042;-79
2023/08/18 00:10:02;;;;;;;87.65;82.82;;;25.70;99.90;;;;;;5014853;28;20038;-79
2023/08/18 00:12:29;;;;;;;93.13;88.15;;;25.90;99.90;;;;;;5014503;28;20380;-79
2023/08/18 00:14:55;;;;;;;123.75;117.30;;;25.70;99.90;;;;;;5014918;28;20394;-80
2023/08/18 00:17:21;;;;;;;153.50;145.73;;;25.70;99.90;;;;;;5013988;28;20376;-79
2023/08/18 00:19:47;;;;;;;100.45;95.25;;;25.60;99.90;;;;;;5014572;28;20044;-78
2023/08/18 00:22:13;;;;;;;121.22;115.03;;;25.50;99.90;;;;;;5014423;28;20030;-79
2023/08/18 00:24:39;;;;;;;108.53;103.13;;;25.60;99.90;;;;;;5014839;28;20038;-79
2023/08/18 00:27:06;;;;;;;293.38;278.20;;;25.80;99.90;;;;;;5014412;28;20036;-79
2023/08/18 00:29:32;;;;;;;81.00;76.60;;;25.70;99.90;;;;;;5015031;28;20046;-79
2023/08/18 00:31:58;;;;;;;155.73;147.90;;;25.60;99.90;;;;;;5013379;28;20506;-79
2023/08/18 00:34:25;;;;;;;176.00;167.07;;;25.40;99.90;;;;;;5014410;28;20043;-79
2023/08/18 00:36:51;;;;;;;111.70;106.13;;;25.30;99.90;;;;;;5014300;28;20026;-79
2023/08/18 00:39:17;;;;;;;54.63;51.55;;;25.40;99.90;;;;;;5014404;28;20053;-79
2023/08/18 00:41:43;;;;;;;71.35;67.72;;;25.30;99.90;;;;;;5013795;28;20030;-80
2023/08/18 00:44:09;;;;;;;61.25;58.08;;;25.30;99.90;;;;;;5014758;28;20464;-79
2023/08/18 00:46:36;;;;;;;59.75;56.38;;;25.20;99.90;;;;;;5013297;28;20041;-80
2023/08/18 00:49:03;;;;;;;57.72;54.67;;;25.00;99.90;;;;;;5014084;28;20037;-79
2023/08/18 00:51:29;;;;;;;59.55;56.30;;;24.90;99.90;;;;;;5012401;28;20475;-79
2023/08/18 00:53:55;;;;;;;121.90;115.53;;;24.90;99.90;;;;;;5012896;28;20368;-80
2023/08/18 00:56:21;;;;;;;86.38;81.97;;;24.90;99.90;;;;;;5013820;28;20029;-80
2023/08/18 00:58:47;;;;;;;105.70;100.30;;;24.80;99.90;;;;;;5012579;28;20156;-79
2023/08/18 01:01:13;;;;;;;77.45;73.50;;;24.80;99.90;;;;;;5011553;28;20042;-79
2023/08/18 01:03:40;;;;;;;76.20;72.22;;;24.70;99.90;;;;;;5012797;28;20041;-79
2023/08/18 01:06:06;;;;;;;92.53;87.78;;;24.70;99.90;;;;;;5012444;28;20037;-79
2023/08/18 01:08:32;;;;;;;91.97;87.32;;;24.70;99.90;;;;;;5012602;28;20041;-79
2023/08/18 01:11:34;;;;;;;80.50;76.43;;;24.70;99.90;;;;;;5013437;28;20034;-80
2023/08/18 01:14:19;;;;;;;64.32;60.80;;;24.60;99.90;;;;;;4971607;28;20038;-79
2023/08/18 01:16:48;;;;;;;52.60;49.67;;;24.70;99.90;;;;;;4971598;28;20042;-79
2023/08/18 01:19:14;;;;;;;55.22;52.08;;;24.70;99.90;;;;;;4956040;28;20058;-79
2023/08/18 01:21:41;;;;;;;44.97;42.47;;;24.90;99.90;;;;;;4956086;28;20030;-79
2023/08/18 01:24:07;;;;;;;64.25;60.70;;;24.90;99.90;;;;;;4956156;28;20034;-79
2023/08/18 01:26:33;;;;;;;69.15;65.28;;;24.90;99.90;;;;;;4972092;28;20033;-79
2023/08/18 01:28:59;;;;;;;54.25;51.10;;;24.80;99.90;;;;;;4972134;28;20046;-79
2023/08/18 01:31:28;;;;;;;118.68;112.65;;;24.70;99.90;;;;;;4971316;28;20060;-79
2023/08/18 01:34:02;;;;;;;60.33;56.85;;;24.70;99.90;;;;;;4956389;28;20034;-79
2023/08/18 01:36:31;;;;;;;77.78;73.82;;;24.50;99.90;;;;;;4955983;28;20472;-78
2023/08/18 01:38:57;;;;;;;89.45;84.68;;;24.60;99.90;;;;;;4971740;28;20452;-79
2023/08/18 01:41:24;;;;;;;98.68;93.68;;;24.60;99.90;;;;;;4955881;28;20039;-79
2023/08/18 01:43:51;;;;;;;89.03;84.32;;;24.60;99.90;;;;;;4955443;28;20050;-79
2023/08/18 01:46:17;;;;;;;84.32;79.95;;;24.60;99.90;;;;;;4971096;28;20043;-79
2023/08/18 01:48:43;;;;;;;105.20;99.82;;;24.60;99.90;;;;;;4972104;28;20027;-79
2023/08/18 01:51:09;;;;;;;126.03;119.82;;;24.60;99.90;;;;;;4992504;28;20057;-79
2023/08/18 01:53:35;;;;;;;105.05;99.65;;;24.80;99.90;;;;;;5012961;28;20042;-79
2023/08/18 01:56:02;;;;;;;168.65;160.18;;;24.90;99.90;;;;;;5012981;28;20044;-79
2023/08/18 01:58:29;;;;;;;138.07;131.05;;;25.00;99.90;;;;;;5010745;28;20030;-79
2023/08/18 02:00:55;;;;;;;131.23;124.63;;;25.00;99.90;;;;;;5005623;28;20699;-79
2023/08/18 02:03:22;;;;;;;110.93;105.43;;;25.00;99.90;;;;;;5007107;28;20052;-79
2023/08/18 02:05:51;;;;;;;95.20;90.30;;;24.90;99.90;;;;;;5010053;28;20029;-79
2023/08/18 02:08:17;;;;;;;88.80;84.20;;;24.90;99.90;;;;;;5010598;28;20038;-79
2023/08/18 02:10:43;;;;;;;111.05;105.28;;;24.80;99.90;;;;;;5011196;28;20045;-80
2023/08/18 02:13:09;;;;;;;109.70;104.18;;;24.90;99.90;;;;;;5011281;28;20025;-79
2023/08/18 02:15:35;;;;;;;85.28;80.97;;;24.90;99.90;;;;;;5011032;28;20041;-79
2023/08/18 02:18:01;;;;;;;94.95;90.05;;;24.90;99.90;;;;;;5011536;28;20025;-79
2023/08/18 02:20:27;;;;;;;97.47;92.53;;;24.90;99.90;;;;;;5010968;28;20046;-79
2023/08/18 02:22:53;;;;;;;90.47;85.82;;;24.90;99.90;;;;;;5011396;28;20037;-79
2023/08/18 02:25:21;;;;;;;83.53;79.25;;;24.90;99.90;;;;;;5010368;28;20029;-79
2023/08/18 02:27:47;;;;;;;88.90;84.25;;;24.90;99.90;;;;;;5011281;28;20042;-79
2023/08/18 02:30:13;;;;;;;106.28;101.00;;;24.80;99.90;;;;;;5010557;28;20038;-79
2023/08/18 02:32:39;;;;;;;114.05;108.20;;;24.70;99.90;;;;;;5011015;28;20471;-79
2023/08/18 02:35:05;;;;;;;101.45;96.47;;;24.80;99.90;;;;;;5011347;28;20049;-79
2023/08/18 02:37:31;;;;;;;88.15;83.80;;;24.90;99.90;;;;;;5011794;28;20038;-79
2023/08/18 02:39:58;;;;;;;91.40;86.88;;;24.90;99.90;;;;;;5012386;28;20046;-79
2023/08/18 02:42:24;;;;;;;83.10;78.93;;;25.00;99.90;;;;;;5011998;28;20479;-79
2023/08/18 02:44:50;;;;;;;78.10;74.20;;;24.90;99.90;;;;;;5012457;28;20038;-79
2023/08/18 02:47:16;;;;;;;83.47;79.30;;;24.90;99.90;;;;;;5011653;28;20407;-79
2023/08/18 02:49:42;;;;;;;96.13;91.32;;;24.80;99.90;;;;;;5012571;28;20029;-79
2023/08/18 02:52:09;;;;;;;74.60;70.53;;;24.90;99.90;;;;;;5011736;28;20042;-79
2023/08/18 02:54:36;;;;;;;105.05;99.85;;;25.00;99.90;;;;;;5012323;28;20038;-79
2023/08/18 02:57:02;;;;;;;112.20;106.70;;;25.20;99.90;;;;;;5011839;28;20030;-79
2023/08/18 02:59:28;;;;;;;156.13;148.52;;;25.30;99.90;;;;;;5010586;28;20053;-79
2023/08/18 03:01:54;;;;;;;191.38;182.18;;;25.30;99.90;;;;;;5010266;28;20034;-79
2023/08/18 03:04:20;;;;;;;158.95;151.27;;;25.40;99.90;;;;;;5012198;28;20026;-79
2023/08/18 03:06:46;;;;;;;166.23;158.20;;;25.40;99.90;;;;;;5012070;28;20038;-79
2023/08/18 03:09:12;;;;;;;162.48;154.65;;;25.40;99.90;;;;;;5012380;28;20041;-79
2023/08/18 03:11:38;;;;;;;241.85;230.45;;;25.30;99.90;;;;;;5011663;28;20030;-80
2023/08/18 03:14:05;;;;;;;254.35;242.10;;;25.40;99.90;;;;;;5012213;28;20029;-79
2023/08/18 03:16:31;;;;;;;263.15;250.52;;;25.50;99.90;;;;;;5010337;28;20049;-79
2023/08/18 03:18:57;;;;;;;223.10;212.27;;;25.50;99.90;;;;;;5012200;28;20030;-79
2023/08/18 03:21:23;;;;;;;238.27;226.63;;;25.50;99.90;;;;;;5011647;28;20044;-79
2023/08/18 03:23:49;;;;;;;230.10;219.05;;;25.50;99.90;;;;;;5012018;28;20026;-79
2023/08/18 03:26:15;;;;;;;243.35;231.73;;;25.60;99.90;;;;;;5011542;28;20043;-79
2023/08/18 03:28:41;;;;;;;224.82;214.07;;;25.60;99.90;;;;;;5012053;28;20033;-79
2023/08/18 03:31:08;;;;;;;286.90;273.08;;;25.50;99.90;;;;;;5011183;28;20038;-79
2023/08/18 03:33:34;;;;;;;227.98;216.85;;;25.60;99.90;;;;;;5012465;28;20430;-79
2023/08/18 03:36:00;;;;;;;213.98;203.60;;;25.50;99.90;;;;;;5012275;28;20575;-79
2023/08/18 03:38:26;;;;;;;238.00;226.55;;;25.40;99.90;;;;;;5016100;28;20402;-78
2023/08/18 03:41:19;;;;;;;210.77;200.77;;;25.40;99.90;;;;;;5014739;28;20040;-79
2023/08/18 03:43:45;;;;;;;142.07;135.15;;;25.40;99.90;;;;;;5012896;28;20483;-79
2023/08/18 03:46:22;;;;;;;172.13;163.68;;;25.40;99.90;;;;;;5014668;28;20034;-79
2023/08/18 03:48:49;;;;;;;145.82;138.70;;;25.40;99.90;;;;;;5015773;28;20390;-79
2023/08/18 03:51:15;;;;;;;141.75;134.68;;;25.40;99.90;;;;;;5013160;28;20049;-79
2023/08/18 03:53:41;;;;;;;137.57;130.85;;;25.40;99.90;;;;;;5014957;28;20034;-79
2023/08/18 03:56:07;;;;;;;146.10;139.00;;;25.40;99.90;;;;;;5015338;28;20356;-79
2023/08/18 03:58:33;;;;;;;128.13;121.72;;;25.40;99.90;;;;;;5015160;28;20052;-79
2023/08/18 04:01:04;;;;;;;136.45;129.80;;;25.40;99.90;;;;;;5014316;28;20042;-79
2023/08/18 04:03:31;;;;;;;235.30;224.13;;;25.40;99.90;;;;;;5014949;28;20030;-79
2023/08/18 04:05:57;;;;;;;141.20;134.38;;;25.40;99.90;;;;;;5014857;28;20497;-79
2023/08/18 04:08:23;;;;;;;164.00;156.05;;;25.30;99.90;;;;;;5014655;28;20486;-79
2023/08/18 04:10:49;;;;;;;252.02;239.98;;;25.10;99.90;;;;;;5014636;28;20030;-80
2023/08/18 04:13:15;;;;;;;144.77;137.65;;;25.30;99.90;;;;;;5014987;28;20379;-79
2023/08/18 04:15:41;;;;;;;123.32;117.10;;;25.30;99.90;;;;;;5014075;28;20038;-79
2023/08/18 04:18:07;;;;;;;167.75;159.57;;;25.30;99.90;;;;;;5014807;28;20378;-78
2023/08/18 04:20:35;;;;;;;231.65;220.50;;;25.30;99.90;;;;;;5014325;28;20037;-79
2023/08/18 04:23:01;;;;;;;151.48;144.07;;;25.20;99.90;;;;;;5014837;28;20038;-79
2023/08/18 04:25:27;;;;;;;206.25;196.23;;;25.20;99.90;;;;;;5014510;28;20041;-79
2023/08/18 04:27:53;;;;;;;169.38;160.98;;;25.10;99.90;;;;;;5014550;28;20026;-79
2023/08/18 04:30:19;;;;;;;157.40;149.70;;;25.00;99.90;;;;;;5013982;28;20419;-79
2023/08/18 04:32:45;;;;;;;133.02;126.35;;;25.00;99.90;;;;;;5014381;28;20042;-79
2023/08/18 04:35:12;;;;;;;122.32;116.22;;;25.00;99.90;;;;;;5014150;28;20379;-79
2023/08/18 04:37:38;;;;;;;144.38;137.20;;;25.10;99.90;;;;;;5013995;28;20026;-79
2023/08/18 04:40:05;;;;;;;114.28;108.55;;;25.10;99.90;;;;;;5014292;28;20049;-79
2023/08/18 04:42:31;;;;;;;108.53;103.28;;;25.20;99.90;;;;;;5014030;28;20030;-79
2023/08/18 04:44:57;;;;;;;121.50;115.43;;;25.10;99.90;;;;;;5014503;28;20041;-79
2023/08/18 04:47:23;;;;;;;126.00;119.68;;;25.10;99.90;;;;;;5013581;28;20049;-79
2023/08/18 04:49:49;;;;;;;118.75;112.90;;;25.10;99.90;;;;;;5013833;28;20026;-78
2023/08/18 04:52:16;;;;;;;150.48;142.90;;;25.10;99.90;;;;;;5013357;28;20479;-78
2023/08/18 04:54:42;;;;;;;178.02;169.02;;;25.10;99.90;;;;;;5014271;28;20106;-79
2023/08/18 04:57:08;;;;;;;179.00;170.10;;;25.10;99.90;;;;;;5014272;28;20065;-79
2023/08/18 04:59:34;;;;;;;126.78;120.38;;;25.10;99.90;;;;;;5013978;28;20041;-79
2023/08/18 05:02:00;;;;;;;192.82;183.45;;;25.10;99.90;;;;;;5012952;28;20037;-79
2023/08/18 05:04:28;;;;;;;191.02;181.80;;;25.10;99.90;;;;;;5012739;28;20479;-78
2023/08/18 05:06:54;;;;;;;209.05;198.77;;;25.10;99.90;;;;;;5013147;28;20034;-79
2023/08/18 05:09:20;;;;;;;162.70;154.60;;;25.10;99.90;;;;;;5013792;28;20053;-78
2023/08/18 05:11:46;;;;;;;133.60;127.05;;;25.10;99.90;;;;;;5013423;28;20485;-79
2023/08/18 05:14:12;;;;;;;127.63;121.15;;;25.10;99.90;;;;;;5013770;28;20037;-79
2023/08/18 05:16:38;;;;;;;134.75;128.05;;;25.20;99.90;;;;;;5011967;28;20057;-78
2023/08/18 05:19:05;;;;;;;127.60;121.22;;;25.10;99.90;;;;;;5013591;28;20026;-78
2023/08/18 05:21:31;;;;;;;140.98;133.85;;;25.20;99.90;;;;;;5013012;28;20061;-78
2023/08/18 05:23:57;;;;;;;122.85;116.55;;;25.10;99.90;;;;;;5013627;28;20022;-79
2023/08/18 05:26:23;;;;;;;130.63;124.18;;;25.10;99.90;;;;;;5013375;28;20518;-78
2023/08/18 05:28:49;;;;;;;104.18;99.07;;;25.10;99.90;;;;;;5013350;28;20030;-79
2023/08/18 05:31:15;;;;;;;109.03;103.65;;;25.10;99.90;;;;;;5012399;28;20034;-78
2023/08/18 05:33:41;;;;;;;106.22;100.75;;;25.10;99.90;;;;;;5013776;28;20030;-79
2023/08/18 05:36:08;;;;;;;114.70;109.10;;;25.10;99.90;;;;;;5012671;28;20387;-78
2023/08/18 05:38:34;;;;;;;120.63;114.55;;;25.10;99.90;;;;;;5013542;28;20395;-79
2023/08/18 05:41:07;;;;;;;116.50;110.78;;;25.20;99.90;;;;;;5013166;28;20065;-79
2023/08/18 05:43:37;;;;;;;109.85;104.40;;;25.20;99.90;;;;;;5012262;28;20042;-78
2023/08/18 05:46:03;;;;;;;113.03;107.28;;;25.10;99.90;;;;;;5012593;28;20042;-78
2023/08/18 05:48:31;;;;;;;119.22;113.32;;;25.20;99.90;;;;;;5013133;28;20382;-78
2023/08/18 05:50:57;;;;;;;111.55;106.05;;;25.10;99.90;;;;;;5011182;28;20042;-78
2023/08/18 05:53:23;;;;;;;111.22;105.32;;;25.00;99.90;;;;;;5012947;28;20478;-79
2023/08/18 05:55:50;;;;;;;119.25;113.28;;;25.00;99.90;;;;;;5012770;28;20030;-79
2023/08/18 05:58:16;;;;;;;110.45;104.80;;;25.00;99.90;;;;;;5013538;28;20033;-79
2023/08/18 06:00:42;;;;;;;108.97;103.45;;;24.90;99.90;;;;;;5009951;28;20038;-79
2023/08/18 06:03:09;;;;;;;103.47;98.07;;;24.90;99.90;;;;;;5012871;28;20037;-78
2023/08/18 06:05:35;;;;;;;112.07;106.40;;;24.90;99.90;;;;;;5012217;28;20467;-79
2023/08/18 06:08:01;;;;;;;97.07;92.15;;;24.90;99.90;;;;;;5011641;28;20034;-78
2023/08/18 06:10:27;;;;;;;98.40;93.15;;;24.90;99.90;;;;;;5012585;28;20406;-81
2023/08/18 06:12:53;;;;;;;104.47;99.22;;;24.90;99.90;;;;;;5012705;28;20034;-79
2023/08/18 06:15:20;;;;;;;97.95;92.65;;;25.00;99.90;;;;;;5012354;28;20057;-79
2023/08/18 06:17:47;;;;;;;108.75;103.22;;;25.00;99.90;;;;;;5012833;28;20030;-78
2023/08/18 06:20:13;;;;;;;93.03;88.13;;;25.00;99.90;;;;;;5012298;28;20076;-78
2023/08/18 06:22:39;;;;;;;100.88;95.65;;;25.00;99.90;;;;;;5012893;28;20411;-79
2023/08/18 06:25:06;;;;;;;94.65;89.78;;;25.00;99.90;;;;;;5012576;28;20037;-79
2023/08/18 06:27:32;;;;;;;94.65;89.90;;;25.00;99.90;;;;;;5012365;28;20061;-78
2023/08/18 06:29:59;;;;;;;107.82;102.03;;;25.00;99.90;;;;;;5012493;28;20033;-78
2023/08/18 06:32:25;;;;;;;145.82;138.43;;;25.00;99.90;;;;;;5011843;28;20045;-78
2023/08/18 06:34:51;;;;;;;156.45;148.55;;;25.00;99.90;;;;;;5012101;28;20040;-79
2023/08/18 06:37:20;;;;;;;178.25;169.43;;;25.00;99.90;;;;;;5012673;28;20025;-79
2023/08/18 06:39:46;;;;;;;156.05;148.30;;;24.90;99.90;;;;;;5012774;28;20038;-79
2023/08/18 06:42:13;;;;;;;176.55;167.82;;;24.90;99.90;;;;;;5012253;28;20042;-78
2023/08/18 06:44:39;;;;;;;124.47;118.18;;;24.80;99.90;;;;;;5012420;28;20041;-79
2023/08/18 06:47:06;;;;;;;124.65;118.25;;;24.60;99.90;;;;;;5011865;28;20041;-79
2023/08/18 06:49:32;;;;;;;116.47;110.35;;;24.30;99.90;;;;;;5012375;28;20038;-79
2023/08/18 06:51:58;;;;;;;128.55;121.78;;;24.20;99.90;;;;;;5012178;28;20399;-78
2023/08/18 06:54:24;;;;;;;190.73;181.05;;;24.00;99.90;;;;;;5012537;28;20427;-78
2023/08/18 06:56:50;;;;;;;127.38;121.03;;;24.10;99.90;;;;;;5011992;28;20026;-79
2023/08/18 06:59:16;;;;;;;145.15;137.50;;;24.30;99.90;;;;;;5012439;28;20491;-78
2023/08/18 07:01:42;;;;;;;134.43;127.75;;;24.40;99.90;;;;;;5011298;28;20046;-79
2023/08/18 07:04:10;;;;;;;114.85;109.07;;;24.50;99.90;;;;;;5012247;28;20030;-78
2023/08/18 07:06:36;;;;;;;91.82;87.03;;;24.60;99.90;;;;;;5012033;28;20030;-78
2023/08/18 07:09:04;;;;;;;91.68;86.88;;;24.70;99.90;;;;;;5011221;28;20368;-79
2023/08/18 07:11:30;;;;;;;113.43;107.65;;;24.80;99.90;;;;;;5013040;28;20042;-79
2023/08/18 07:13:56;;;;;;;106.00;100.35;;;24.80;99.90;;;;;;5016085;28;20025;-79
2023/08/18 07:16:22;;;;;;;117.32;111.25;;;24.80;99.90;;;;;;5015065;28;20030;-78
2023/08/18 07:18:48;;;;;;;129.27;122.82;;;24.90;99.90;;;;;;5015856;28;20037;-78
2023/08/18 07:21:14;;;;;;;107.43;101.72;;;24.60;99.90;;;;;;5015614;28;20483;-78
2023/08/18 07:23:40;;;;;;;116.15;110.18;;;24.60;99.90;;;;;;5015869;28;20040;-78
2023/08/18 07:26:06;;;;;;;76.28;72.07;;;24.70;99.90;;;;;;5015576;28;20376;-79
2023/08/18 07:28:32;;;;;;;86.22;81.15;;;24.60;99.90;;;;;;5015741;28;20033;-78
2023/08/18 07:31:05;;;;;;;86.70;82.18;;;24.50;99.90;;;;;;5014426;28;20049;-79
2023/08/18 07:33:31;;;;;;;90.30;85.53;;;24.40;99.90;;;;;;5014492;28;20041;-78
2023/08/18 07:35:58;;;;;;;91.68;86.80;;;24.30;99.90;;;;;;5015359;28;20386;-78
2023/08/18 07:38:24;;;;;;;91.90;86.97;;;24.40;99.90;;;;;;5015513;28;20029;-78
2023/08/18 07:40:51;;;;;;;113.68;107.78;;;24.30;99.90;;;;;;5015043;28;20037;-79
2023/08/18 07:43:17;;;;;;;101.07;96.00;;;24.40;99.90;;;;;;5015349;28;20026;-78
2023/08/18 07:45:43;;;;;;;112.40;106.75;;;24.30;99.90;;;;;;5014329;28;20038;-78
2023/08/18 07:48:10;;;;;;;122.90;116.80;;;24.30;99.90;;;;;;5015447;28;20498;-79
2023/08/18 07:50:37;;;;;;;105.97;100.75;;;24.50;99.90;;;;;;5014920;28;20478;-79
2023/08/18 07:53:03;;;;;;;114.63;108.78;;;24.60;99.90;;;;;;5015493;28;20073;-78
2023/08/18 07:55:29;;;;;;;99.18;94.00;;;24.60;99.90;;;;;;5014864;28;20518;-78
2023/08/18 07:57:55;;;;;;;104.97;99.63;;;24.80;99.90;;;;;;5015222;28;20042;-79
2023/08/18 08:00:21;;;;;;;90.38;85.47;;;24.90;99.90;;;;;;5014108;28;20026;-79
2023/08/18 08:02:48;;;;;;;102.47;97.03;;;24.80;99.90;;;;;;5015168;28;20410;-79
2023/08/18 08:05:17;;;;;;;107.28;101.72;;;24.90;99.90;;;;;;5014813;28;20037;-78
2023/08/18 08:07:43;;;;;;;166.98;158.63;;;25.00;99.90;;;;;;5015295;28;20042;-78
2023/08/18 08:10:09;;;;;;;168.63;160.13;;;25.10;99.90;;;;;;5014585;28;20030;-79
2023/08/18 08:12:38;;;;;;;126.57;120.22;;;25.10;99.90;;;;;;4995393;28;20050;-78
2023/08/18 08:15:04;;;;;;;92.88;88.10;;;25.10;99.90;;;;;;4994745;28;20042;-77
2023/08/18 08:17:32;;;;;;;98.38;92.45;;;25.30;99.90;;;;;;5013924;28;20026;-78
2023/08/18 08:20:00;;;;;;;90.50;85.47;;;25.40;99.90;;;;;;5014898;28;20041;-78
2023/08/18 08:22:26;;;;;;;95.68;90.70;;;25.50;99.90;;;;;;5012508;28;20053;-78
2023/08/18 08:24:54;;;;;;;89.65;85.10;;;25.60;99.90;;;;;;5014461;28;20033;-79
2023/08/18 08:27:20;;;;;;;93.50;88.75;;;25.70;99.90;;;;;;5014684;28;20402;-79
2023/08/18 08:29:47;;;;;;;99.47;94.35;;;25.70;99.90;;;;;;5012834;28;20053;-78
2023/08/18 08:32:13;;;;;;;90.82;86.13;;;25.80;99.90;;;;;;5013736;28;20451;-78
2023/08/18 08:34:41;;;;;;;81.38;77.18;;;25.80;99.90;;;;;;5014347;28;20026;-78
2023/08/18 08:37:08;;;;;;;84.80;80.38;;;25.90;99.90;;;;;;5012801;28;20033;-78
2023/08/18 08:39:34;;;;;;;79.35;74.93;;;25.90;99.90;;;;;;5014231;28;20037;-78
2023/08/18 08:42:00;;;;;;;86.30;81.80;;;25.90;99.90;;;;;;5013848;28;20038;-78
2023/08/18 08:44:26;;;;;;;119.20;113.25;;;26.00;99.90;;;;;;5014203;28;20041;-79
2023/08/18 08:46:52;;;;;;;121.65;115.30;;;26.10;99.90;;;;;;5013609;28;20407;-79
2023/08/18 08:49:19;;;;;;;101.50;96.10;;;25.90;99.90;;;;;;5012917;28;20025;-78
2023/08/18 08:51:46;;;;;;;97.35;92.32;;;26.00;99.90;;;;;;5012592;28;20053;-78
2023/08/18 08:54:12;;;;;;;124.18;117.65;;;26.20;99.90;;;;;;5012784;28;20041;-78
2023/08/18 08:56:39;;;;;;;151.65;143.77;;;26.30;99.90;;;;;;5012505;28;20033;-79
2023/08/18 08:59:05;;;;;;;137.23;130.38;;;26.30;99.90;;;;;;5011593;28;20041;-78
2023/08/18 09:01:31;;;;;;;139.25;132.07;;;26.40;99.90;;;;;;5011678;28;20053;-78
2023/08/18 09:03:57;;;;;;;159.18;151.07;;;26.60;99.90;;;;;;5013910;28;20022;-78
2023/08/18 09:06:23;;;;;;;129.88;123.20;;;26.70;99.90;;;;;;5012299;28;20046;-79
2023/08/18 09:08:49;;;;;;;143.70;136.15;;;26.60;99.90;;;;;;5013775;28;20022;-78
2023/08/18 09:11:16;;;;;;;106.90;101.28;;;26.70;99.90;;;;;;5013324;28;20037;-79
2023/08/18 09:13:42;;;;;;;137.10;129.98;;;26.70;99.90;;;;;;5012416;28;20033;-79
2023/08/18 09:16:08;;;;;;;136.32;129.43;;;26.90;99.90;;;;;;5013054;28;20042;-78
2023/08/18 09:18:34;;;;;;;110.18;104.57;;;27.00;99.90;;;;;;5013644;28;20036;-78
2023/08/18 09:21:01;;;;;;;143.93;136.65;;;27.00;99.90;;;;;;5013289;28;20121;-78
2023/08/18 09:23:27;;;;;;;158.77;150.55;;;27.10;99.90;;;;;;5012523;28;20032;-78
2023/08/18 09:25:59;;;;;;;216.18;205.13;;;27.20;99.90;;;;;;5012126;28;20034;-78
2023/08/18 09:28:25;;;;;;;174.02;165.15;;;27.30;99.90;;;;;;5013157;28;20022;-78
2023/08/18 09:30:52;;;;;;;174.40;165.82;;;27.40;99.90;;;;;;5011367;28;20041;-78
2023/08/18 09:33:23;;;;;;;168.45;160.23;;;27.50;99.90;;;;;;5013468;28;20379;-78
2023/08/18 09:35:58;;;;;;;148.57;140.85;;;27.60;99.90;;;;;;5012949;28;20471;-78
2023/08/18 09:38:25;;;;;;;151.57;143.95;;;27.70;99.90;;;;;;5013152;28;20050;-78
2023/08/18 09:40:53;;;;;;;148.00;140.38;;;27.70;99.90;;;;;;5012782;28;20053;-78
2023/08/18 09:43:19;;;;;;;143.25;136.20;;;27.80;99.90;;;;;;5011876;28;20030;-78
2023/08/18 09:45:46;;;;;;;153.68;145.93;;;27.80;99.90;;;;;;5012526;28;20387;-78
2023/08/18 09:48:13;;;;;;;160.90;152.90;;;27.80;99.90;;;;;;5011777;28;20034;-78
2023/08/18 09:50:39;;;;;;;163.27;155.07;;;28.00;99.90;;;;;;5011423;28;20089;-78
2023/08/18 09:53:05;;;;;;;152.63;144.95;;;28.20;99.90;;;;;;5011891;28;20053;-78
2023/08/18 09:55:43;;;;;;;164.05;155.65;;;28.40;99.90;;;;;;5011681;28;20033;-78
2023/08/18 09:58:30;;;;;;;172.07;163.57;;;28.70;99.90;;;;;;5011529;28;20030;-78
2023/08/18 10:00:56;;;;;;;155.27;147.73;;;28.90;99.90;;;;;;5011087;28;20038;-78
2023/08/18 10:03:25;;;;;;;154.20;146.18;;;29.10;99.90;;;;;;5012865;28;20040;-78
2023/08/18 10:05:52;;;;;;;159.30;151.52;;;29.20;99.90;;;;;;5012516;28;20029;-77
2023/08/18 10:08:18;;;;;;;150.82;143.27;;;29.20;99.90;;;;;;5011698;28;20042;-78
2023/08/18 10:10:45;;;;;;;192.40;182.93;;;29.40;99.90;;;;;;5011048;28;20506;-79
2023/08/18 10:13:11;;;;;;;153.20;145.43;;;29.40;99.90;;;;;;5013305;28;20049;-78
2023/08/18 10:15:37;;;;;;;137.18;130.57;;;29.50;99.90;;;;;;5010623;28;20037;-78
2023/08/18 10:18:08;;;;;;;141.23;134.13;;;29.50;99.90;;;;;;5012619;28;20056;-78
2023/08/18 10:20:35;;;;;;;155.02;147.43;;;29.70;99.90;;;;;;5011164;28;20022;-78
2023/08/18 10:23:04;;;;;;;181.57;172.93;;;29.90;99.90;;;;;;5012774;28;20038;-78
2023/08/18 10:25:31;;;;;;;151.98;144.55;;;30.00;99.90;;;;;;5010936;28;20025;-78
2023/08/18 10:27:57;;;;;;;203.95;194.20;;;30.10;99.90;;;;;;5011197;28;20050;-78
2023/08/18 10:30:24;;;;;;;221.55;211.15;;;29.90;99.90;;;;;;5011667;28;20031;-78
2023/08/18 10:32:51;;;;;;;193.45;184.27;;;29.60;99.90;;;;;;5012389;28;20489;-78
2023/08/18 10:35:22;;;;;;;264.25;251.75;;;29.80;99.90;;;;;;5012312;28;20032;-77
2023/08/18 10:37:58;;;;;;;206.90;197.10;;;30.00;99.90;;;;;;5012791;28;20050;-78
2023/08/18 10:40:34;;;;;;;173.02;164.48;;;30.00;99.90;;;;;;5010853;28;20372;-77
2023/08/18 10:43:13;;;;;;;189.65;180.13;;;30.10;99.90;;;;;;5010956;28;20496;-78
2023/08/18 10:45:42;;;;;;;235.15;223.65;;;30.30;99.90;;;;;;5011992;28;20034;-78
2023/08/18 10:48:09;;;;;;;228.25;217.10;;;30.50;99.90;;;;;;5015379;28;20061;-77
2023/08/18 10:50:39;;;;;;;249.52;237.55;;;30.40;99.90;;;;;;5015934;28;20038;-78
2023/08/18 10:53:07;;;;;;;211.23;201.20;;;30.40;99.90;;;;;;5016558;28;20053;-78
2023/08/18 10:55:33;;;;;;;201.35;191.65;;;30.50;99.90;;;;;;5015934;28;20030;-78
2023/08/18 10:57:59;;;;;;;200.88;191.27;;;30.20;99.90;;;;;;5014733;28;20041;-77
2023/08/18 11:00:26;;;;;;;204.45;194.60;;;30.30;99.90;;;;;;5015288;28;20026;-78
2023/08/18 11:02:52;;;;;;;156.05;148.27;;;30.40;99.90;;;;;;5014895;28;20049;-78
2023/08/18 11:05:18;;;;;;;135.02;128.23;;;30.50;99.90;;;;;;5014253;28;20391;-78
2023/08/18 11:07:45;;;;;;;154.02;146.23;;;30.70;99.90;;;;;;5015055;28;20034;-78
2023/08/18 11:10:20;;;;;;;195.55;186.20;;;30.80;99.90;;;;;;5015372;28;20034;-78
2023/08/18 11:12:47;;;;;;;284.00;270.40;;;30.90;99.90;;;;;;5014908;28;20022;-78
2023/08/18 11:15:14;;;;;;;325.20;309.35;;;31.00;99.90;;;;;;5015290;28;20029;-77
2023/08/18 11:17:41;;;;;;;235.18;224.07;;;31.00;99.90;;;;;;5016488;28;20038;-78
2023/08/18 11:20:13;;;;;;;206.85;196.93;;;31.00;99.90;;;;;;5016153;28;20042;-78
2023/08/18 11:22:44;;;;;;;188.70;179.52;;;31.10;99.90;;;;;;5015677;28;20050;-78
2023/08/18 11:25:14;;;;;;;185.70;176.48;;;31.20;99.90;;;;;;5015528;28;20037;-77
2023/08/18 11:27:40;;;;;;;200.85;191.20;;;31.40;99.90;;;;;;5016114;28;20391;-78
2023/08/18 11:30:10;;;;;;;193.98;184.57;;;31.60;99.90;;;;;;5013986;28;20034;-78
2023/08/18 11:32:40;;;;;;;213.27;203.10;;;31.70;99.90;;;;;;5015337;28;20042;-78
2023/08/18 11:35:07;;;;;;;225.10;214.35;;;31.80;99.90;;;;;;5015639;28;20045;-78
2023/08/18 11:37:44;;;;;;;228.98;218.05;;;31.80;99.90;;;;;;5013835;28;20038;-78
2023/08/18 11:40:12;;;;;;;156.50;148.35;;;31.60;99.90;;;;;;5015496;28;20030;-78
2023/08/18 11:42:42;;;;;;;163.95;155.90;;;31.70;99.90;;;;;;4995876;28;20039;-78
2023/08/18 11:45:15;;;;;;;205.75;195.73;;;31.80;99.90;;;;;;4994213;28;20479;-76
2023/08/18 11:48:00;;;;;;;222.90;212.18;;;31.80;99.90;;;;;;4996183;28;20046;-78
2023/08/18 11:50:37;;;;;;;240.02;228.30;;;31.80;99.90;;;;;;5005874;28;20044;-78
2023/08/18 11:53:07;;;;;;;191.88;182.60;;;31.60;99.90;;;;;;5014997;28;20060;-78
2023/08/18 11:55:41;;;;;;;180.50;171.77;;;31.60;99.90;;;;;;5014947;28;20403;-78
2023/08/18 11:58:13;;;;;;;179.95;171.32;;;31.70;99.90;;;;;;5013970;28;20042;-78
2023/08/18 12:00:39;;;;;;;226.95;216.07;;;31.70;99.90;;;;;;5014412;28;20482;-78
2023/08/18 12:03:07;;;;;;;216.27;206.00;;;31.70;99.90;;;;;;5015045;28;20041;-78
2023/08/18 12:05:37;;;;;;;199.82;190.25;;;31.90;99.90;;;;;;5015186;28;20038;-78
2023/08/18 12:08:08;;;;;;;196.80;186.77;;;32.00;99.90;;;;;;5014819;28;20022;-78
2023/08/18 12:10:35;;;;;;;225.88;215.20;;;32.00;99.90;;;;;;5012862;28;20042;-78
2023/08/18 12:13:01;;;;;;;258.08;245.68;;;31.90;99.90;;;;;;5014863;28;20415;-78